HWD weather

Hayward Executive Airport
Hayward, California, United States

Public forecast

Using degrees Fahrenheit for public forecast. Weather courtesy of forecast.io.

METAR (pilot weather report)

Retrieved 2019/06/15 21:54 UTC (38 minutes ago):

KHWD 152154Z 29013KT 10SM SCT015 17/11 A2998 RMK AO2 SLP160 T01720111

TAF (pilot weather forecast)

Closest forecast is Metropolitan Oakland International Airport, 6.0 nm (11.1 km) NW. Retrieved 2019/06/15 18:24 UTC (4 hours ago):

TAF KOAK 151720Z 1518/1624 25011KT P6SM OVC010 FM152000 29012KT P6SM SCT015 FM152200 29014KT P6SM FEW010 FM160300 29015KT P6SM BKN012 FM160600 29007KT P6SM OVC010 FM162000 29010KT P6SM FEW012 SCT200